sensor_id;sensor_type;location;lat;lon;timestamp;pressure;altitude;pressure_sealevel;temperature;humidity
7668;BME280;3876;42.204;24.686;2023-04-01T16:02:22;97973.88;;;14.64;100.00
7668;BME280;3876;42.204;24.686;2023-04-01T16:04:58;97983.28;;;14.65;100.00
7668;BME280;3876;42.204;24.686;2023-04-01T16:07:36;97989.16;;;14.54;100.00
7668;BME280;3876;42.204;24.686;2023-04-01T16:10:25;97986.09;;;14.49;100.00
7668;BME280;3876;42.204;24.686;2023-04-01T16:13:11;97990.13;;;14.41;100.00
7668;BME280;3876;42.204;24.686;2023-04-01T16:15:46;97980.72;;;14.27;100.00
7668;BME280;3876;42.204;24.686;2023-04-01T16:18:33;97991.53;;;14.32;100.00
7668;BME280;3876;42.204;24.686;2023-04-01T16:21:07;97988.94;;;14.32;100.00
7668;BME280;3876;42.204;24.686;2023-04-01T16:23:40;97994.31;;;14.29;100.00
7668;BME280;3876;42.204;24.686;2023-04-01T16:26:13;97995.22;;;14.28;100.00
7668;BME280;3876;42.204;24.686;2023-04-01T16:28:50;97994.00;;;14.21;100.00
7668;BME280;3876;42.204;24.686;2023-04-01T16:31:29;98006.16;;;14.19;100.00
7668;BME280;3876;42.204;24.686;2023-04-01T16:34:03;98007.81;;;14.20;100.00
7668;BME280;3876;42.204;24.686;2023-04-01T16:36:37;98003.28;;;14.11;100.00
7668;BME280;3876;42.204;24.686;2023-04-01T16:39:19;98024.00;;;14.22;100.00
7668;BME280;3876;42.204;24.686;2023-04-01T16:41:52;98026.28;;;14.14;100.00
7668;BME280;3876;42.204;24.686;2023-04-01T16:44:25;98039.44;;;13.97;100.00
7668;BME280;3876;42.204;24.686;2023-04-01T16:46:53;98050.75;;;13.82;100.00
7668;BME280;3876;42.204;24.686;2023-04-01T16:49:30;98037.50;;;13.74;100.00
7668;BME280;3876;42.204;24.686;2023-04-01T16:52:13;98024.72;;;13.59;100.00
7668;BME280;3876;42.204;24.686;2023-04-01T16:54:43;98003.06;;;13.49;100.00
7668;BME280;3876;42.204;24.686;2023-04-01T16:57:19;97986.16;;;13.45;100.00
7668;BME280;3876;42.204;24.686;2023-04-01T16:59:55;97993.34;;;13.40;100.00
7668;BME280;3876;42.204;24.686;2023-04-01T17:02:30;97969.63;;;13.35;100.00
7668;BME280;3876;42.204;24.686;2023-04-01T17:05:02;97961.84;;;13.37;100.00
7668;BME280;3876;42.204;24.686;2023-04-01T17:07:40;97966.16;;;13.36;100.00
7668;BME280;3876;42.204;24.686;2023-04-01T17:10:28;97973.25;;;13.33;100.00
7668;BME280;3876;42.204;24.686;2023-04-01T17:13:29;97988.06;;;13.29;100.00
7668;BME280;3876;42.204;24.686;2023-04-01T17:16:07;97993.38;;;13.26;100.00
7668;BME280;3876;42.204;24.686;2023-04-01T17:18:44;98012.94;;;13.29;100.00
7668;BME280;3876;42.204;24.686;2023-04-01T17:21:20;98017.81;;;13.33;100.00
7668;BME280;3876;42.204;24.686;2023-04-01T17:23:51;98013.94;;;13.40;100.00
7668;BME280;3876;42.204;24.686;2023-04-01T17:26:32;98025.81;;;13.55;100.00
7668;BME280;3876;42.204;24.686;2023-04-01T17:29:09;98018.34;;;13.65;100.00
7668;BME280;3876;42.204;24.686;2023-04-01T17:31:46;98029.06;;;13.72;100.00
7668;BME280;3876;42.204;24.686;2023-04-01T17:34:29;98050.78;;;13.67;100.00
7668;BME280;3876;42.204;24.686;2023-04-01T17:37:22;98048.59;;;13.61;100.00
7668;BME280;3876;42.204;24.686;2023-04-01T17:40:00;98076.06;;;13.48;100.00
7668;BME280;3876;42.204;24.686;2023-04-01T17:42:39;98170.97;;;13.26;100.00
7668;BME280;3876;42.204;24.686;2023-04-01T17:45:11;98179.50;;;13.12;100.00
7668;BME280;3876;42.204;24.686;2023-04-01T17:47:54;98195.94;;;13.10;100.00
7668;BME280;3876;42.204;24.686;2023-04-01T17:50:35;98196.97;;;13.22;100.00
7668;BME280;3876;42.204;24.686;2023-04-01T17:53:19;98196.34;;;13.18;100.00
7668;BME280;3876;42.204;24.686;2023-04-01T17:56:01;98203.69;;;13.24;100.00
7668;BME280;3876;42.204;24.686;2023-04-01T17:58:33;98209.22;;;13.18;100.00
7668;BME280;3876;42.204;24.686;2023-04-01T18:01:15;98213.22;;;13.22;100.00
7668;BME280;3876;42.204;24.686;2023-04-01T18:04:10;98219.31;;;13.21;99.78
7668;BME280;3876;42.204;24.686;2023-04-01T18:06:54;98227.56;;;13.26;97.39
7668;BME280;3876;42.204;24.686;2023-04-01T18:09:36;98225.72;;;13.28;96.89
7668;BME280;3876;42.204;24.686;2023-04-01T18:12:14;98225.19;;;13.23;97.70
7668;BME280;3876;42.204;24.686;2023-04-01T18:15:19;98236.38;;;13.22;97.54
7668;BME280;3876;42.204;24.686;2023-04-01T18:17:59;98246.78;;;13.21;97.40
7668;BME280;3876;42.204;24.686;2023-04-01T18:20:40;98242.38;;;13.23;97.79
7668;BME280;3876;42.204;24.686;2023-04-01T18:23:19;98247.03;;;13.16;98.70
7668;BME280;3876;42.204;24.686;2023-04-01T18:25:53;98235.47;;;13.23;98.84
7668;BME280;3876;42.204;24.686;2023-04-01T18:28:25;98231.44;;;13.19;98.30
7668;BME280;3876;42.204;24.686;2023-04-01T18:31:04;98216.75;;;13.21;98.80
7668;BME280;3876;42.204;24.686;2023-04-01T18:33:40;98227.28;;;13.17;98.35
7668;BME280;3876;42.204;24.686;2023-04-01T18:36:18;98232.97;;;13.07;99.19
7668;BME280;3876;42.204;24.686;2023-04-01T18:38:49;98219.44;;;13.04;100.00
7668;BME280;3876;42.204;24.686;2023-04-01T18:41:26;98223.88;;;13.02;100.00
7668;BME280;3876;42.204;24.686;2023-04-01T18:44:07;98235.50;;;12.93;100.00
7668;BME280;3876;42.204;24.686;2023-04-01T18:46:45;98229.41;;;12.80;100.00
7668;BME280;3876;42.204;24.686;2023-04-01T18:49:17;98242.00;;;12.85;100.00
7668;BME280;3876;42.204;24.686;2023-04-01T18:51:49;98247.69;;;12.76;100.00
7668;BME280;3876;42.204;24.686;2023-04-01T18:54:23;98234.66;;;12.49;100.00
7668;BME280;3876;42.204;24.686;2023-04-01T18:57:03;98259.34;;;12.51;100.00
7668;BME280;3876;42.204;24.686;2023-04-01T18:59:38;98269.25;;;12.43;100.00
7668;BME280;3876;42.204;24.686;2023-04-01T19:02:16;98276.69;;;12.32;100.00
7668;BME280;3876;42.204;24.686;2023-04-01T19:04:51;98279.59;;;12.26;100.00
7668;BME280;3876;42.204;24.686;2023-04-01T19:07:43;98268.16;;;12.16;100.00
7668;BME280;3876;42.204;24.686;2023-04-01T19:10:17;98260.72;;;11.96;100.00
7668;BME280;3876;42.204;24.686;2023-04-01T19:12:55;98262.38;;;11.97;100.00
7668;BME280;3876;42.204;24.686;2023-04-01T19:15:31;98262.38;;;11.97;100.00
7668;BME280;3876;42.204;24.686;2023-04-01T19:21:07;98260.72;;;11.96;100.00
7668;BME280;3876;42.204;24.686;2023-04-01T19:23:57;98260.38;;;11.86;100.00
7668;BME280;3876;42.204;24.686;2023-04-01T19:26:33;98266.50;;;11.84;100.00
7668;BME280;3876;42.204;24.686;2023-04-01T19:29:06;98271.97;;;11.78;100.00
7668;BME280;3876;42.204;24.686;2023-04-01T19:31:49;98258.66;;;11.70;100.00
7668;BME280;3876;42.204;24.686;2023-04-01T19:34:26;98279.19;;;11.70;100.00
7668;BME280;3876;42.204;24.686;2023-04-01T19:36:59;98282.19;;;11.62;100.00
7668;BME280;3876;42.204;24.686;2023-04-01T19:39:36;98286.03;;;11.53;100.00
7668;BME280;3876;42.204;24.686;2023-04-01T19:42:13;98289.41;;;11.38;100.00
7668;BME280;3876;42.204;24.686;2023-04-01T19:44:52;98295.00;;;11.29;100.00
7668;BME280;3876;42.204;24.686;2023-04-01T19:47:37;98299.97;;;11.32;100.00
7668;BME280;3876;42.204;24.686;2023-04-01T19:50:18;98307.69;;;11.32;100.00
7668;BME280;3876;42.204;24.686;2023-04-01T19:52:50;98315.06;;;11.38;100.00
7668;BME280;3876;42.204;24.686;2023-04-01T19:55:28;98311.66;;;11.38;100.00
7668;BME280;3876;42.204;24.686;2023-04-01T19:58:05;98313.38;;;11.37;100.00
7668;BME280;3876;42.204;24.686;2023-04-01T20:00:42;98311.06;;;11.33;100.00
7668;BME280;3876;42.204;24.686;2023-04-01T20:03:21;98312.06;;;11.30;100.00
7668;BME280;3876;42.204;24.686;2023-04-01T20:06:03;98290.72;;;11.13;100.00
7668;BME280;3876;42.204;24.686;2023-04-01T20:08:40;98323.53;;;11.23;100.00
7668;BME280;3876;42.204;24.686;2023-04-01T20:11:21;98316.75;;;11.22;100.00
7668;BME280;3876;42.204;24.686;2023-04-01T20:14:01;98333.34;;;11.15;100.00
7668;BME280;3876;42.204;24.686;2023-04-01T20:16:49;98326.56;;;11.14;100.00
7668;BME280;3876;42.204;24.686;2023-04-01T20:19:26;98337.88;;;11.10;100.00
7668;BME280;3876;42.204;24.686;2023-04-01T20:21:56;98337.78;;;11.12;99.13
7668;BME280;3876;42.204;24.686;2023-04-01T20:24:28;98334.16;;;11.16;99.03
7668;BME280;3876;42.204;24.686;2023-04-01T20:27:00;98332.00;;;11.08;99.76
7668;BME280;3876;42.204;24.686;2023-04-01T20:29:41;98335.47;;;11.07;99.03
7668;BME280;3876;42.204;24.686;2023-04-01T20:35:25;98346.75;;;11.03;98.91
7668;BME280;3876;42.204;24.686;2023-04-01T20:38:16;98345.19;;;11.00;99.67
7668;BME280;3876;42.204;24.686;2023-04-01T20:40:50;98352.19;;;10.97;99.04
7668;BME280;3876;42.204;24.686;2023-04-01T20:43:35;98359.75;;;11.00;99.00
7668;BME280;3876;42.204;24.686;2023-04-01T20:46:19;98357.47;;;10.94;98.60
7668;BME280;3876;42.204;24.686;2023-04-01T20:48:56;98362.59;;;10.94;99.01
7668;BME280;3876;42.204;24.686;2023-04-01T20:51:31;98364.53;;;10.89;99.32
7668;BME280;3876;42.204;24.686;2023-04-01T20:54:11;98373.91;;;10.90;99.54
7668;BME280;3876;42.204;24.686;2023-04-01T20:56:51;98380.31;;;10.81;100.00
7668;BME280;3876;42.204;24.686;2023-04-01T20:59:40;98382.91;;;10.80;100.00
7668;BME280;3876;42.204;24.686;2023-04-01T21:02:23;98387.84;;;10.84;99.99
7668;BME280;3876;42.204;24.686;2023-04-01T21:05:30;98396.13;;;10.89;100.00
7668;BME280;3876;42.204;24.686;2023-04-01T21:08:07;98402.41;;;10.84;100.00
7668;BME280;3876;42.204;24.686;2023-04-01T21:10:41;98399.69;;;10.87;100.00
7668;BME280;3876;42.204;24.686;2023-04-01T21:13:21;98405.09;;;10.81;100.00
7668;BME280;3876;42.204;24.686;2023-04-01T21:16:02;98409.69;;;10.74;100.00
7668;BME280;3876;42.204;24.686;2023-04-01T21:18:48;98395.44;;;10.69;100.00
7668;BME280;3876;42.204;24.686;2023-04-01T21:21:26;98407.59;;;10.64;100.00
7668;BME280;3876;42.204;24.686;2023-04-01T21:24:23;98414.41;;;10.65;100.00
7668;BME280;3876;42.204;24.686;2023-04-01T21:27:00;98421.19;;;10.66;100.00
7668;BME280;3876;42.204;24.686;2023-04-01T21:29:40;98418.56;;;10.67;100.00
7668;BME280;3876;42.204;24.686;2023-04-01T21:35:24;98421.75;;;10.72;99.85
7668;BME280;3876;42.204;24.686;2023-04-01T21:41:05;98426.47;;;10.63;100.00
7668;BME280;3876;42.204;24.686;2023-04-01T21:43:47;98426.63;;;10.60;100.00
7668;BME280;3876;42.204;24.686;2023-04-01T21:46:45;98421.88;;;10.50;100.00
7668;BME280;3876;42.204;24.686;2023-04-01T21:52:49;98429.47;;;10.15;100.00
7668;BME280;3876;42.204;24.686;2023-04-01T21:55:37;98425.84;;;10.00;100.00
7668;BME280;3876;42.204;24.686;2023-04-01T21:58:57;98416.63;;;9.96;100.00
7668;BME280;3876;42.204;24.686;2023-04-01T22:01:45;98424.66;;;9.88;100.00
7668;BME280;3876;42.204;24.686;2023-04-01T22:04:43;98434.50;;;9.77;100.00
7668;BME280;3876;42.204;24.686;2023-04-01T22:07:14;98445.50;;;9.79;100.00
7668;BME280;3876;42.204;24.686;2023-04-01T22:09:51;98394.25;;;9.61;100.00
7668;BME280;3876;42.204;24.686;2023-04-01T22:12:25;98444.34;;;9.86;100.00
7668;BME280;3876;42.204;24.686;2023-04-01T22:15:01;98436.31;;;9.75;100.00
7668;BME280;3876;42.204;24.686;2023-04-01T22:17:35;98453.28;;;9.76;100.00
7668;BME280;3876;42.204;24.686;2023-04-01T22:20:16;98455.16;;;9.73;100.00
7668;BME280;3876;42.204;24.686;2023-04-01T22:23:12;98457.03;;;9.69;100.00
7668;BME280;3876;42.204;24.686;2023-04-01T22:25:48;98461.19;;;9.72;100.00
7668;BME280;3876;42.204;24.686;2023-04-01T22:28:22;98467.31;;;9.68;100.00
7668;BME280;3876;42.204;24.686;2023-04-01T22:30:57;98450.38;;;9.65;100.00
7668;BME280;3876;42.204;24.686;2023-04-01T22:33:31;98463.75;;;9.72;100.00
7668;BME280;3876;42.204;24.686;2023-04-01T22:36:05;98445.38;;;9.62;100.00
7668;BME280;3876;42.204;24.686;2023-04-01T22:38:48;98455.63;;;9.62;100.00
7668;BME280;3876;42.204;24.686;2023-04-01T22:41:28;98453.81;;;9.64;100.00
7668;BME280;3876;42.204;24.686;2023-04-01T22:43:59;98458.22;;;9.61;100.00
7668;BME280;3876;42.204;24.686;2023-04-01T22:46:45;98454.53;;;9.68;100.00
7668;BME280;3876;42.204;24.686;2023-04-01T22:49:20;98462.78;;;9.74;100.00
7668;BME280;3876;42.204;24.686;2023-04-01T22:51:52;98460.78;;;9.81;100.00
7668;BME280;3876;42.204;24.686;2023-04-01T22:54:25;98463.97;;;9.86;100.00
7668;BME280;3876;42.204;24.686;2023-04-01T22:56:56;98467.19;;;9.91;100.00
7668;BME280;3876;42.204;24.686;2023-04-01T22:59:27;98465.53;;;9.90;100.00
7668;BME280;3876;42.204;24.686;2023-04-01T23:02:06;98452.22;;;9.82;100.00
7668;BME280;3876;42.204;24.686;2023-04-01T23:04:39;98483.25;;;9.94;100.00
7668;BME280;3876;42.204;24.686;2023-04-01T23:07:23;98475.38;;;9.99;100.00
7668;BME280;3876;42.204;24.686;2023-04-01T23:09:53;98480.34;;;10.02;100.00
7668;BME280;3876;42.204;24.686;2023-04-01T23:12:21;98480.22;;;10.05;99.85
7668;BME280;3876;42.204;24.686;2023-04-01T23:14:51;98468.34;;;10.04;99.58
7668;BME280;3876;42.204;24.686;2023-04-01T23:17:31;98472.81;;;9.99;99.62
7668;BME280;3876;42.204;24.686;2023-04-01T23:20:10;98465.34;;;9.94;99.25
7668;BME280;3876;42.204;24.686;2023-04-01T23:22:49;98463.84;;;9.89;99.19
7668;BME280;3876;42.204;24.686;2023-04-01T23:25:28;98453.81;;;9.84;98.73
7668;BME280;3876;42.204;24.686;2023-04-01T23:28:15;98461.81;;;9.77;99.17
7668;BME280;3876;42.204;24.686;2023-04-01T23:30:49;98461.63;;;9.81;99.07
7668;BME280;3876;42.204;24.686;2023-04-01T23:33:27;98467.72;;;9.79;99.05
7668;BME280;3876;42.204;24.686;2023-04-01T23:35:56;98469.00;;;9.69;98.80
7668;BME280;3876;42.204;24.686;2023-04-01T23:38:31;98471.91;;;9.60;99.15
7668;BME280;3876;42.204;24.686;2023-04-01T23:40:58;98466.22;;;9.53;98.31
7668;BME280;3876;42.204;24.686;2023-04-01T23:43:27;98453.34;;;9.55;98.50
7668;BME280;3876;42.204;24.686;2023-04-01T23:45:57;98456.44;;;9.63;98.08
7668;BME280;3876;42.204;24.686;2023-04-01T23:48:32;98453.81;;;9.64;98.17
7668;BME280;3876;42.204;24.686;2023-04-01T23:51:00;98462.19;;;9.68;98.02
7668;BME280;3876;42.204;24.686;2023-04-01T23:53:30;98477.41;;;9.71;98.29
7668;BME280;3876;42.204;24.686;2023-04-01T23:55:59;98484.00;;;9.76;97.75
7668;BME280;3876;42.204;24.686;2023-04-01T23:58:40;98473.78;;;9.76;97.60
